createdAt,value
2017-09-06T00:01:34.052Z,58.90
2017-09-06T00:04:01.712Z,58.80
2017-09-06T00:06:29.285Z,58.70
2017-09-06T00:08:56.813Z,58.80
2017-09-06T00:11:24.334Z,58.80
2017-09-06T00:13:52.002Z,58.80
2017-09-06T00:16:19.538Z,58.70
2017-09-06T00:18:47.265Z,58.70
2017-09-06T00:21:14.773Z,58.70
2017-09-06T00:23:42.291Z,58.60
2017-09-06T00:26:09.810Z,58.70
2017-09-06T00:28:37.334Z,58.90
2017-09-06T00:31:04.823Z,58.70
2017-09-06T00:33:32.391Z,58.70
2017-09-06T00:35:59.903Z,58.70
2017-09-06T00:38:27.402Z,58.70
2017-09-06T00:40:54.923Z,58.60
2017-09-06T00:43:22.429Z,58.50
2017-09-06T00:45:49.948Z,58.60
2017-09-06T00:48:17.460Z,58.80
2017-09-06T00:50:45.000Z,58.70
2017-09-06T00:53:12.546Z,58.70
2017-09-06T00:55:40.086Z,58.70
2017-09-06T00:58:07.730Z,58.70
2017-09-06T01:00:35.297Z,58.70
2017-09-06T01:03:02.852Z,58.60
2017-09-06T01:05:30.350Z,58.70
2017-09-06T01:07:57.878Z,58.60
2017-09-06T01:10:25.383Z,58.70
2017-09-06T01:12:52.911Z,58.70
2017-09-06T01:15:20.437Z,58.70
2017-09-06T01:17:47.941Z,58.60
2017-09-06T01:20:15.448Z,58.60
2017-09-06T01:22:42.974Z,58.70
2017-09-06T01:25:10.471Z,58.50
2017-09-06T01:27:37.987Z,58.50
2017-09-06T01:30:05.502Z,58.60
2017-09-06T01:32:33.015Z,58.60
2017-09-06T01:35:00.613Z,58.50
2017-09-06T01:37:28.202Z,58.50
2017-09-06T01:39:55.745Z,58.50
2017-09-06T01:42:23.266Z,58.50
2017-09-06T01:44:50.788Z,58.40
2017-09-06T01:47:18.285Z,58.50
2017-09-06T01:49:45.813Z,58.50
2017-09-06T01:52:13.310Z,58.50
2017-09-06T01:54:40.835Z,58.50
2017-09-06T01:57:08.380Z,58.50
2017-09-06T01:59:35.862Z,58.50
2017-09-06T02:02:03.366Z,58.50
2017-09-06T02:04:30.896Z,58.50
2017-09-06T02:06:58.428Z,58.50
2017-09-06T02:09:25.929Z,58.50
2017-09-06T02:11:53.437Z,58.60
2017-09-06T02:14:20.969Z,58.50
2017-09-06T02:16:48.597Z,58.50
2017-09-06T02:19:16.310Z,58.70
2017-09-06T02:21:43.822Z,58.60
2017-09-06T02:24:11.482Z,58.60
2017-09-06T02:26:38.988Z,58.50
2017-09-06T02:29:06.504Z,58.70
2017-09-06T02:31:34.030Z,58.50
2017-09-06T02:34:01.529Z,58.40
2017-09-06T02:36:29.046Z,58.50
2017-09-06T02:38:56.555Z,58.60
2017-09-06T02:41:24.058Z,58.60
2017-09-06T02:43:51.573Z,58.50
2017-09-06T02:46:19.080Z,58.40
2017-09-06T02:48:46.605Z,58.50
2017-09-06T02:51:14.108Z,58.40
2017-09-06T02:53:41.604Z,58.50
2017-09-06T02:56:09.114Z,58.50
2017-09-06T02:58:36.637Z,58.40
2017-09-06T03:01:04.230Z,58.40
2017-09-06T03:03:31.761Z,58.50
2017-09-06T03:05:59.398Z,58.30
2017-09-06T03:08:26.973Z,59.20
2017-09-06T03:10:54.680Z,58.40
2017-09-06T03:13:22.179Z,58.50
2017-09-06T03:15:49.881Z,58.30
2017-09-06T03:18:17.412Z,58.50
2017-09-06T03:20:45.010Z,58.40
2017-09-06T03:23:12.537Z,58.40
2017-09-06T03:25:40.066Z,58.30
2017-09-06T03:28:07.635Z,58.30
2017-09-06T03:30:35.134Z,58.30
2017-09-06T03:33:02.657Z,58.30
2017-09-06T03:35:30.229Z,58.40
2017-09-06T03:37:57.740Z,58.30
2017-09-06T03:40:25.234Z,58.30
2017-09-06T03:42:52.751Z,58.30
2017-09-06T03:45:20.264Z,58.30
2017-09-06T03:47:47.785Z,58.40
2017-09-06T03:50:15.306Z,58.40
2017-09-06T03:52:42.800Z,58.20
2017-09-06T03:55:10.302Z,58.30
2017-09-06T03:57:37.910Z,58.40
2017-09-06T04:00:05.447Z,58.20
2017-09-06T04:02:33.010Z,58.20
2017-09-06T04:05:00.529Z,58.20
2017-09-06T04:07:28.204Z,59.00
2017-09-06T04:09:55.831Z,58.40
2017-09-06T04:12:23.349Z,58.50
2017-09-06T04:14:50.841Z,58.50
2017-09-06T04:17:18.415Z,58.50
2017-09-06T04:19:45.921Z,58.50
2017-09-06T04:22:13.434Z,58.50
2017-09-06T04:24:41.049Z,58.50
2017-09-06T04:27:08.586Z,58.50
2017-09-06T04:29:36.106Z,58.60
2017-09-06T04:32:03.621Z,58.50
2017-09-06T04:34:31.122Z,58.50
2017-09-06T04:36:58.642Z,58.60
2017-09-06T04:39:26.135Z,58.60
2017-09-06T04:41:53.764Z,58.70
2017-09-06T04:44:21.248Z,58.70
2017-09-06T04:46:48.776Z,58.80
2017-09-06T04:49:16.274Z,59.20
2017-09-06T04:51:43.790Z,59.00
2017-09-06T04:54:11.541Z,58.90
2017-09-06T04:56:39.164Z,58.90
2017-09-06T04:59:06.677Z,58.90
2017-09-06T05:01:34.230Z,58.90
2017-09-06T05:04:01.837Z,58.80
2017-09-06T05:06:29.493Z,58.90
2017-09-06T05:08:57.133Z,58.90
2017-09-06T05:11:24.666Z,59.00
2017-09-06T05:13:52.191Z,58.80
2017-09-06T05:16:19.803Z,59.20
2017-09-06T05:18:47.430Z,59.20
2017-09-06T05:21:14.939Z,59.30
2017-09-06T05:23:42.436Z,59.20
2017-09-06T05:26:09.945Z,59.00
2017-09-06T05:28:37.483Z,59.20
2017-09-06T05:31:05.009Z,59.40
2017-09-06T05:33:32.515Z,59.40
2017-09-06T05:36:00.051Z,59.20
2017-09-06T05:38:27.538Z,59.20
2017-09-06T05:40:55.066Z,59.30
2017-09-06T05:43:22.608Z,59.50
2017-09-06T05:45:50.102Z,60.30
2017-09-06T05:48:17.602Z,59.30
2017-09-06T05:50:45.123Z,59.50
2017-09-06T05:53:12.754Z,59.50
2017-09-06T05:55:40.460Z,59.40
2017-09-06T05:58:07.999Z,59.40
2017-09-06T06:00:36.098Z,59.40
2017-09-06T06:03:03.637Z,59.50
2017-09-06T06:05:31.154Z,59.30
2017-09-06T06:07:58.661Z,59.50
2017-09-06T06:10:26.180Z,59.50
2017-09-06T06:12:53.681Z,59.40
2017-09-06T06:15:21.189Z,59.50
2017-09-06T06:17:48.697Z,59.30
2017-09-06T06:20:16.224Z,59.50
2017-09-06T06:22:43.739Z,59.40
2017-09-06T06:25:11.261Z,59.50
2017-09-06T06:27:38.893Z,59.60
2017-09-06T06:30:06.459Z,59.80
2017-09-06T06:32:34.141Z,60.00
2017-09-06T06:35:02.042Z,60.00
2017-09-06T06:37:29.566Z,59.80
2017-09-06T06:39:57.085Z,60.10
2017-09-06T06:42:24.620Z,59.80
2017-09-06T06:44:52.122Z,60.20
2017-09-06T06:47:19.646Z,60.20
2017-09-06T06:49:47.166Z,60.20
2017-09-06T06:52:14.677Z,61.10
2017-09-06T06:54:42.274Z,60.20
2017-09-06T06:57:09.781Z,60.40
2017-09-06T06:59:37.286Z,60.30
2017-09-06T07:02:04.890Z,60.20
2017-09-06T07:04:32.431Z,60.30
2017-09-06T07:06:59.934Z,60.10
2017-09-06T07:09:27.490Z,60.00
2017-09-06T07:11:54.997Z,60.20
2017-09-06T07:14:22.518Z,60.10
2017-09-06T07:16:50.027Z,60.30
2017-09-06T07:19:17.553Z,60.30
2017-09-06T07:21:45.039Z,60.40
2017-09-06T07:24:12.607Z,60.60
2017-09-06T07:26:40.106Z,60.60
2017-09-06T07:29:07.738Z,60.70
2017-09-06T07:31:35.302Z,60.80
2017-09-06T07:34:02.855Z,61.00
2017-09-06T07:36:30.503Z,61.30
2017-09-06T07:38:58.025Z,61.20
2017-09-06T07:41:25.600Z,60.90
2017-09-06T07:43:53.114Z,60.90
2017-09-06T07:46:20.620Z,61.00
2017-09-06T07:48:48.133Z,60.60
2017-09-06T07:51:15.649Z,61.00
2017-09-06T07:53:43.158Z,61.50
2017-09-06T07:56:10.665Z,61.30
2017-09-06T07:58:38.758Z,61.30
2017-09-06T08:01:06.264Z,61.40
2017-09-06T08:03:33.959Z,61.40
2017-09-06T08:06:01.502Z,61.40
2017-09-06T08:11:31.622Z,61.30
2017-09-06T08:13:59.221Z,61.50
2017-09-06T08:16:26.781Z,61.60
2017-09-06T08:18:54.444Z,61.50
2017-09-06T08:21:22.009Z,61.70
2017-09-06T08:23:49.509Z,61.60
2017-09-06T08:26:17.049Z,61.60
2017-09-06T08:28:44.563Z,61.70
2017-09-06T08:31:12.102Z,61.80
2017-09-06T08:33:39.630Z,61.70
2017-09-06T08:36:07.268Z,61.50
2017-09-06T08:38:34.960Z,61.60
2017-09-06T08:41:02.615Z,61.50
2017-09-06T08:43:30.364Z,61.80
2017-09-06T08:45:57.916Z,61.70
2017-09-06T08:54:31.394Z,61.70
2017-09-06T08:56:58.922Z,61.20
2017-09-06T08:59:26.528Z,61.20
2017-09-06T09:01:54.113Z,61.10
2017-09-06T09:04:21.628Z,60.80
2017-09-06T09:06:49.197Z,60.90
2017-09-06T09:09:16.722Z,61.00
2017-09-06T09:11:44.330Z,61.10
2017-09-06T09:14:11.836Z,61.30
2017-09-06T09:16:39.388Z,61.00
2017-09-06T09:19:06.998Z,60.90
2017-09-06T09:21:34.553Z,61.00
2017-09-06T09:24:02.137Z,61.10
2017-09-06T09:26:29.864Z,61.10
2017-09-06T09:28:57.456Z,61.10
2017-09-06T09:31:24.985Z,61.00
2017-09-06T09:33:52.524Z,61.00
2017-09-06T09:36:20.138Z,61.10
2017-09-06T09:38:47.666Z,60.90
2017-09-06T09:41:15.241Z,61.10
2017-09-06T09:46:16.863Z,60.90
2017-09-06T09:48:44.498Z,61.10
2017-09-06T09:51:12.032Z,61.00
2017-09-06T09:53:39.538Z,60.90
2017-09-06T09:56:07.042Z,61.10
2017-09-06T09:58:34.593Z,60.90
2017-09-06T10:01:02.110Z,61.00
2017-09-06T10:03:29.977Z,61.00
2017-09-06T10:05:57.537Z,61.10
2017-09-06T10:08:25.130Z,60.90
2017-09-06T10:10:52.818Z,60.90
2017-09-06T10:13:20.407Z,60.70
2017-09-06T10:15:47.954Z,60.80
2017-09-06T10:18:15.473Z,60.60
2017-09-06T10:20:43.011Z,60.80
2017-09-06T10:23:10.651Z,60.70
2017-09-06T10:25:38.189Z,60.90
2017-09-06T10:28:05.736Z,60.80
2017-09-06T10:30:33.276Z,60.70
2017-09-06T10:33:00.835Z,60.60
2017-09-06T10:35:28.332Z,60.90
2017-09-06T10:37:55.888Z,60.70
2017-09-06T10:40:23.410Z,60.80
2017-09-06T10:42:51.042Z,60.70
2017-09-06T10:45:18.745Z,60.60
2017-09-06T10:47:46.305Z,60.80
2017-09-06T10:50:13.925Z,60.70
2017-09-06T10:52:41.517Z,60.80
2017-09-06T10:55:19.038Z,60.60
2017-09-06T10:57:46.576Z,60.70
2017-09-06T11:00:14.184Z,60.60
2017-09-06T11:02:41.742Z,60.50
2017-09-06T11:05:09.251Z,60.10
2017-09-06T11:07:36.750Z,60.10
2017-09-06T11:10:04.296Z,60.00
2017-09-06T11:12:31.895Z,60.00
2017-09-06T11:14:59.974Z,59.80
2017-09-06T11:17:27.511Z,59.90
2017-09-06T11:19:55.095Z,59.80
2017-09-06T11:22:22.666Z,59.80
2017-09-06T11:24:50.197Z,59.80
2017-09-06T11:27:17.758Z,59.80
2017-09-06T11:29:45.854Z,59.70
2017-09-06T11:32:13.902Z,59.80
2017-09-06T11:34:42.809Z,59.70
2017-09-06T11:37:10.435Z,59.70
2017-09-06T11:39:38.000Z,59.60
2017-09-06T11:42:05.873Z,59.60
2017-09-06T11:44:33.539Z,59.60
2017-09-06T11:47:01.152Z,59.60
2017-09-06T11:49:28.792Z,59.60
2017-09-06T11:51:56.809Z,59.50
2017-09-06T11:54:24.403Z,59.50
2017-09-06T11:56:52.142Z,59.50
2017-09-06T11:59:19.733Z,59.30
2017-09-06T12:01:47.864Z,59.40
2017-09-06T12:04:15.493Z,59.40
2017-09-06T12:06:44.852Z,59.30
2017-09-06T12:09:12.477Z,59.30
2017-09-06T12:11:40.017Z,59.30
2017-09-06T12:14:07.537Z,59.30
2017-09-06T12:16:35.065Z,59.20
2017-09-06T12:19:04.383Z,59.30
2017-09-06T12:21:31.979Z,59.10
2017-09-06T12:23:59.570Z,59.20
2017-09-06T12:26:27.422Z,59.10
2017-09-06T12:28:55.273Z,59.10
2017-09-06T12:31:22.843Z,59.10
2017-09-06T12:33:50.346Z,59.10
2017-09-06T12:36:17.873Z,59.10
2017-09-06T12:38:45.378Z,59.20
2017-09-06T12:41:12.936Z,59.40
2017-09-06T12:43:40.517Z,59.60
2017-09-06T12:46:08.063Z,59.50
2017-09-06T12:48:35.622Z,59.50
2017-09-06T12:51:03.204Z,59.60
2017-09-06T12:53:30.890Z,59.70
2017-09-06T12:55:58.490Z,59.60
2017-09-06T12:58:26.025Z,59.70
2017-09-06T13:00:53.564Z,59.70
2017-09-06T13:03:21.233Z,59.70
2017-09-06T13:05:48.754Z,59.60
2017-09-06T13:08:16.426Z,59.60
2017-09-06T13:10:43.953Z,60.50
2017-09-06T13:13:11.544Z,59.60
2017-09-06T13:15:39.065Z,59.60
2017-09-06T13:18:06.580Z,59.70
2017-09-06T13:20:34.155Z,59.60
2017-09-06T13:23:01.838Z,59.60
2017-09-06T13:25:29.385Z,59.60
2017-09-06T13:27:57.033Z,59.50
2017-09-06T13:30:24.576Z,59.50
2017-09-06T13:32:52.346Z,59.50
2017-09-06T13:35:19.912Z,59.60
2017-09-06T13:37:47.447Z,59.50
2017-09-06T13:40:15.060Z,59.40
2017-09-06T13:42:42.621Z,59.50
2017-09-06T13:45:10.206Z,59.50
2017-09-06T13:47:37.815Z,59.60
2017-09-06T13:50:05.448Z,59.50
2017-09-06T13:52:34.607Z,59.60
2017-09-06T13:55:02.136Z,59.60
2017-09-06T13:57:29.918Z,59.40
2017-09-06T13:59:57.439Z,59.50
2017-09-06T14:02:25.112Z,59.50
2017-09-06T14:04:52.656Z,59.50
2017-09-06T14:07:20.378Z,59.40
2017-09-06T14:09:48.183Z,58.90
2017-09-06T14:12:15.796Z,58.50
2017-09-06T14:14:43.353Z,58.30
2017-09-06T14:17:11.099Z,58.20
2017-09-06T14:19:38.639Z,58.60
2017-09-06T14:22:06.239Z,59.10
2017-09-06T14:24:33.853Z,59.90
2017-09-06T14:27:01.378Z,59.10
2017-09-06T14:29:29.006Z,59.10
2017-09-06T14:31:56.722Z,59.10
2017-09-06T14:34:24.256Z,59.00
2017-09-06T14:36:51.906Z,59.00
2017-09-06T14:39:19.585Z,59.00
2017-09-06T14:41:47.112Z,59.00
2017-09-06T14:44:14.664Z,59.00
2017-09-06T14:46:42.230Z,59.00
2017-09-06T14:49:09.752Z,58.80
2017-09-06T14:51:37.307Z,58.80
2017-09-06T14:54:05.012Z,58.80
2017-09-06T14:56:32.521Z,58.70
2017-09-06T14:59:00.065Z,58.50
2017-09-06T15:01:27.633Z,58.60
2017-09-06T15:03:55.279Z,58.50
2017-09-06T15:06:22.824Z,58.50
2017-09-06T15:08:50.381Z,58.40
2017-09-06T15:11:17.941Z,58.40
2017-09-06T15:13:45.516Z,58.30
2017-09-06T15:16:13.026Z,58.30
2017-09-06T15:18:40.587Z,58.30
2017-09-06T15:21:08.203Z,58.20
2017-09-06T15:23:35.735Z,58.10
2017-09-06T15:26:03.301Z,58.10
2017-09-06T15:28:30.884Z,58.20
2017-09-06T15:30:58.501Z,58.00
2017-09-06T15:33:25.980Z,58.00
2017-09-06T15:35:53.669Z,57.90
2017-09-06T15:38:21.252Z,57.90
2017-09-06T15:40:48.916Z,57.90
2017-09-06T15:43:16.433Z,57.90
2017-09-06T15:45:43.991Z,57.90
2017-09-06T15:48:11.619Z,57.90
2017-09-06T15:50:39.170Z,57.70
2017-09-06T15:53:06.710Z,57.70
2017-09-06T15:55:34.266Z,57.90
2017-09-06T15:58:01.925Z,57.50
2017-09-06T16:00:29.492Z,57.70
2017-09-06T16:02:57.150Z,57.10
2017-09-06T16:05:24.686Z,57.20
2017-09-06T16:07:52.407Z,57.10
2017-09-06T16:10:19.980Z,56.90
2017-09-06T16:12:47.508Z,57.00
2017-09-06T16:15:15.140Z,56.80
2017-09-06T16:17:42.772Z,56.60
2017-09-06T16:20:10.293Z,56.40
2017-09-06T16:22:37.853Z,56.40
2017-09-06T16:25:05.496Z,56.10
2017-09-06T16:27:33.004Z,56.40
2017-09-06T16:30:00.627Z,56.60
2017-09-06T16:32:28.244Z,56.50
2017-09-06T16:35:05.717Z,56.70
2017-09-06T16:37:33.279Z,56.80
2017-09-06T16:40:00.824Z,56.20
2017-09-06T16:42:28.392Z,56.70
2017-09-06T16:44:55.986Z,56.60
2017-09-06T16:47:23.574Z,56.50
2017-09-06T16:49:51.213Z,56.60
2017-09-06T16:52:18.839Z,56.70
2017-09-06T16:54:46.383Z,56.40
2017-09-06T16:57:13.935Z,56.50
2017-09-06T16:59:41.435Z,56.50
2017-09-06T17:02:09.163Z,56.20
2017-09-06T17:04:36.887Z,56.20
2017-09-06T17:07:04.410Z,56.00
2017-09-06T17:09:41.760Z,56.10
2017-09-06T17:12:09.332Z,56.00
2017-09-06T17:14:36.926Z,56.00
2017-09-06T17:17:04.545Z,55.90
2017-09-06T17:19:32.109Z,55.70
2017-09-06T17:21:59.643Z,55.70
2017-09-06T17:24:28.835Z,55.90
2017-09-06T17:26:56.469Z,55.50
2017-09-06T17:29:24.023Z,55.50
2017-09-06T17:31:51.616Z,55.50
2017-09-06T17:34:19.217Z,55.50
2017-09-06T17:36:47.271Z,54.80
2017-09-06T17:39:14.950Z,54.80
2017-09-06T17:41:42.706Z,54.50
2017-09-06T17:44:10.302Z,54.80
2017-09-06T17:46:37.848Z,54.90
2017-09-06T17:49:05.422Z,54.70
2017-09-06T17:51:32.975Z,54.90
2017-09-06T17:54:01.351Z,54.90
2017-09-06T17:56:29.012Z,54.80
2017-09-06T17:58:56.655Z,54.70
2017-09-06T18:01:24.220Z,55.20
2017-09-06T18:03:51.801Z,54.80
2017-09-06T18:06:19.388Z,53.90
2017-09-06T18:08:46.870Z,53.80
2017-09-06T18:11:14.559Z,54.30
2017-09-06T18:13:42.360Z,54.40
2017-09-06T18:16:10.280Z,54.40
2017-09-06T18:18:38.063Z,54.50
2017-09-06T18:21:05.725Z,53.70
2017-09-06T18:23:33.321Z,54.10
2017-09-06T18:26:00.870Z,53.20
2017-09-06T18:28:28.606Z,53.50
2017-09-06T18:30:56.374Z,53.70
2017-09-06T18:33:23.927Z,53.40
2017-09-06T18:35:51.447Z,52.80
2017-09-06T18:38:18.991Z,52.80
2017-09-06T18:40:46.553Z,52.60
2017-09-06T18:43:14.058Z,52.80
2017-09-06T18:45:41.692Z,52.90
2017-09-06T18:48:09.266Z,53.00
2017-09-06T18:50:36.924Z,53.00
2017-09-06T18:53:04.533Z,53.30
2017-09-06T18:55:32.060Z,53.80
2017-09-06T18:57:59.620Z,53.90
2017-09-06T19:00:27.306Z,54.10
2017-09-06T19:02:54.930Z,55.00
2017-09-06T19:05:22.477Z,54.20
2017-09-06T19:07:50.170Z,55.40
2017-09-06T19:10:17.773Z,54.50
2017-09-06T19:12:45.363Z,54.70
2017-09-06T19:15:12.907Z,54.70
2017-09-06T19:17:40.449Z,54.80
2017-09-06T19:20:08.123Z,55.00
2017-09-06T19:22:35.645Z,55.10
2017-09-06T19:25:03.223Z,55.30
2017-09-06T19:27:30.859Z,55.40
2017-09-06T19:29:58.500Z,55.40
2017-09-06T19:32:26.093Z,55.50
2017-09-06T19:34:53.621Z,56.10
2017-09-06T19:37:21.195Z,55.70
2017-09-06T19:39:48.695Z,55.70
2017-09-06T19:42:16.310Z,55.70
2017-09-06T19:44:43.921Z,55.70
2017-09-06T19:47:11.490Z,56.00
2017-09-06T19:49:39.341Z,55.60
2017-09-06T19:52:07.283Z,55.70
2017-09-06T19:54:35.067Z,55.70
2017-09-06T19:57:02.741Z,55.80
2017-09-06T19:59:30.472Z,55.70
2017-09-06T20:02:00.515Z,55.80
2017-09-06T20:04:28.342Z,55.90
2017-09-06T20:06:57.060Z,55.80
2017-09-06T20:09:24.601Z,55.80
2017-09-06T20:11:52.203Z,55.90
2017-09-06T20:14:19.771Z,55.90
2017-09-06T20:16:49.097Z,55.90
2017-09-06T20:19:16.765Z,55.90
2017-09-06T20:21:45.453Z,55.90
2017-09-06T20:24:13.112Z,55.90
2017-09-06T20:26:40.625Z,55.90
2017-09-06T20:29:08.241Z,55.80
2017-09-06T20:31:36.201Z,55.80
2017-09-06T20:34:03.808Z,55.60
2017-09-06T20:36:31.373Z,55.70
2017-09-06T20:38:59.099Z,55.60
2017-09-06T20:41:26.680Z,55.60
2017-09-06T20:43:54.257Z,55.60
2017-09-06T20:46:21.928Z,55.70
2017-09-06T20:48:49.459Z,55.70
2017-09-06T20:51:17.079Z,55.70
2017-09-06T20:53:44.693Z,55.70
2017-09-06T20:56:12.230Z,55.70
2017-09-06T20:58:39.746Z,55.70
2017-09-06T21:01:07.292Z,55.70
2017-09-06T21:03:34.813Z,55.60
2017-09-06T21:06:02.315Z,55.60
2017-09-06T21:08:29.923Z,55.60
2017-09-06T21:10:57.413Z,55.60
2017-09-06T21:13:24.992Z,55.70
2017-09-06T21:15:52.535Z,55.60
2017-09-06T21:18:20.082Z,55.70
2017-09-06T21:20:47.675Z,55.80
2017-09-06T21:23:15.195Z,55.80
2017-09-06T21:25:42.760Z,55.80
2017-09-06T21:28:10.266Z,55.80
2017-09-06T21:30:37.979Z,55.90
2017-09-06T21:33:05.487Z,55.70
2017-09-06T21:35:33.051Z,55.80
2017-09-06T21:38:00.597Z,55.80
2017-09-06T21:40:28.205Z,55.80
2017-09-06T21:42:55.808Z,55.80
2017-09-06T21:45:23.410Z,55.80
2017-09-06T21:47:51.090Z,55.80
2017-09-06T21:50:18.612Z,55.80
2017-09-06T21:52:46.377Z,55.90
2017-09-06T21:55:14.026Z,55.80
2017-09-06T21:57:41.503Z,55.90
2017-09-06T22:00:09.063Z,55.90
2017-09-06T22:02:36.574Z,55.90
2017-09-06T22:05:04.176Z,55.80
2017-09-06T22:07:31.673Z,55.70
2017-09-06T22:09:59.294Z,55.80
2017-09-06T22:12:26.863Z,55.80
2017-09-06T22:14:54.468Z,55.80
2017-09-06T22:17:21.974Z,55.80
2017-09-06T22:19:49.505Z,56.60
2017-09-06T22:22:17.026Z,55.90
2017-09-06T22:24:44.622Z,55.90
2017-09-06T22:27:45.185Z,55.90
2017-09-06T22:30:12.745Z,55.90
2017-09-06T22:32:40.285Z,56.00
2017-09-06T22:35:07.879Z,55.90
2017-09-06T22:37:35.432Z,56.00
2017-09-06T22:40:02.933Z,56.00
2017-09-06T22:42:30.492Z,56.10
2017-09-06T22:44:58.065Z,56.20
2017-09-06T22:47:25.602Z,56.10
2017-09-06T22:49:53.148Z,56.00
2017-09-06T22:52:20.648Z,56.00
2017-09-06T22:54:48.210Z,56.00
2017-09-06T22:57:15.735Z,56.00
2017-09-06T22:59:43.340Z,56.10
2017-09-06T23:02:10.886Z,56.00
2017-09-06T23:04:38.818Z,57.00
2017-09-06T23:32:52.598Z,56.10
2017-09-06T23:35:20.158Z,56.00
2017-09-06T23:37:48.600Z,56.00
2017-09-06T23:40:16.138Z,56.00
2017-09-06T23:42:43.645Z,56.10
2017-09-06T23:45:11.229Z,56.00
2017-09-06T23:50:17.596Z,56.10
2017-09-06T23:52:45.140Z,56.10
2017-09-06T23:55:12.765Z,56.10
2017-09-06T23:57:40.280Z,56.00
